Time;durP1;ratioP1;P1;durP2;ratioP2;P2;SDS_P1;SDS_P2;PMS_P1;PMS_P2;Temp;Humidity;BMP_temperature;BMP_pressure;BME280_temperature;BME280_humidity;BME280_pressure;Samples;Min_cycle;Max_cycle;Signal;HPM_P1;HPM_P2
2022/09/27 00:01:51;;;;;;;7.53;1.10;;;;;;;;;;5058305;28;20088;-77
2022/09/27 00:04:18;;;;;;;1.88;0.32;;;;;;;;;;5058474;28;20041;-77
2022/09/27 00:06:46;;;;;;;1.65;0.20;;;;;;;;;;5058132;28;20049;-77
2022/09/27 00:09:13;;;;;;;11.40;0.75;;;;;;;;;;5059008;28;20038;-78
2022/09/27 00:11:44;;;;;;;5.25;0.47;;;;;;;;;;5062833;28;20080;-77
2022/09/27 00:14:12;;;;;;;0.77;0.38;;;;;;;;;;5063695;28;20899;-78
2022/09/27 00:16:40;;;;;;;1.38;0.52;;;;;;;;;;5064210;28;20156;-78
2022/09/27 00:19:11;;;;;;;5.53;0.65;;;;;;;;;;5077444;28;20045;-77
2022/09/27 00:21:38;;;;;;;0.43;0.38;;;;;;;;;;5061467;28;20053;-78
2022/09/27 00:24:05;;;;;;;6.70;0.70;;;;;;;;;;5054922;28;20054;-78
2022/09/27 00:26:32;;;;;;;8.63;1.08;;;;;;;;;;5055815;28;20041;-77
2022/09/27 00:29:00;;;;;;;2.55;0.50;;;;;;;;;;5061491;28;20072;-77
2022/09/27 00:31:28;;;;;;;3.30;0.65;;;;;;;;;;5048955;28;20046;-77
2022/09/27 00:33:57;;;;;;;2.60;0.65;;;;;;;;;;5049796;28;20049;-78
2022/09/27 00:36:24;;;;;;;11.02;0.70;;;;;;;;;;5050277;28;20050;-78
2022/09/27 00:38:52;;;;;;;3.75;0.82;;;;;;;;;;5054710;28;20042;-78
2022/09/27 00:41:27;;;;;;;3.40;0.90;;;;;;;;;;5058135;28;20046;-78
2022/09/27 00:44:00;;;;;;;1.05;0.40;;;;;;;;;;5056944;28;20069;-78
2022/09/27 00:46:36;;;;;;;0.20;0.20;;;;;;;;;;5050728;28;20049;-78
2022/09/27 00:49:09;;;;;;;3.38;0.70;;;;;;;;;;5056417;28;20081;-79
2022/09/27 00:51:37;;;;;;;0.80;0.30;;;;;;;;;;5049874;28;20101;-78
2022/09/27 00:54:07;;;;;;;0.82;0.30;;;;;;;;;;5054326;28;20203;-79
2022/09/27 00:56:36;;;;;;;1.65;0.30;;;;;;;;;;5049638;28;20052;-79
2022/09/27 00:59:07;;;;;;;8.82;0.73;;;;;;;;;;5049704;28;20096;-78
2022/09/27 01:01:35;;;;;;;8.10;0.65;;;;;;;;;;5054104;28;20058;-78
2022/09/27 01:04:10;;;;;;;15.65;1.00;;;;;;;;;;5049929;28;20062;-79
2022/09/27 01:06:37;;;;;;;8.00;0.85;;;;;;;;;;5050334;28;20051;-79
2022/09/27 01:09:06;;;;;;;0.82;0.30;;;;;;;;;;5053439;28;20653;-78
2022/09/27 01:11:50;;;;;;;4.68;0.50;;;;;;;;;;5060398;28;20162;-78
2022/09/27 01:14:36;;;;;;;0.52;0.30;;;;;;;;;;5052158;28;20063;-77
2022/09/27 01:17:09;;;;;;;0.45;0.30;;;;;;;;;;5047375;28;20041;-78
2022/09/27 01:19:46;;;;;;;0.63;0.30;;;;;;;;;;5055735;28;20049;-77
2022/09/27 01:22:19;;;;;;;11.30;0.50;;;;;;;;;;5055181;28;20049;-78
2022/09/27 01:24:47;;;;;;;;;;;;;;;;;;5047594;28;20108;-77
2022/09/27 01:27:33;;;;;;;6.45;0.65;;;;;;;;;;5055401;28;45196;-79
2022/09/27 01:30:20;;;;;;;5.25;0.60;;;;;;;;;;5060318;28;20080;-79
2022/09/27 01:33:13;;;;;;;1.70;0.32;;;;;;;;;;5059038;28;20037;-79
2022/09/27 01:35:41;;;;;;;9.68;0.50;;;;;;;;;;5048582;28;20067;-78
2022/09/27 01:38:20;;;;;;;2.33;0.40;;;;;;;;;;5063505;28;20050;-77
2022/09/27 01:40:55;;;;;;;0.60;0.32;;;;;;;;;;5053273;28;20439;-77
2022/09/27 01:43:27;;;;;;;0.52;0.22;;;;;;;;;;5067512;28;20107;-77
2022/09/27 01:45:58;;;;;;;0.88;0.43;;;;;;;;;;5060249;28;20053;-77
2022/09/27 01:48:28;;;;;;;1.88;0.77;;;;;;;;;;5065046;28;20076;-78
2022/09/27 01:51:03;;;;;;;6.43;0.60;;;;;;;;;;5062741;28;20119;-77
2022/09/27 01:53:33;;;;;;;4.00;0.57;;;;;;;;;;5070889;28;20065;-77
2022/09/27 01:56:03;;;;;;;15.23;1.23;;;;;;;;;;5056804;28;20107;-78
2022/09/27 01:58:36;;;;;;;7.05;0.65;;;;;;;;;;5059012;28;20052;-77
2022/09/27 02:01:05;;;;;;;1.75;0.77;;;;;;;;;;5057246;28;20053;-78
2022/09/27 02:03:36;;;;;;;0.55;0.32;;;;;;;;;;5062398;28;20056;-79
2022/09/27 02:06:08;;;;;;;4.70;1.13;;;;;;;;;;5057892;28;20053;-77
2022/09/27 02:08:47;;;;;;;5.85;0.90;;;;;;;;;;5051349;28;20057;-77
2022/09/27 02:11:15;;;;;;;3.92;0.50;;;;;;;;;;5063030;28;20049;-77
2022/09/27 02:13:48;;;;;;;1.30;0.57;;;;;;;;;;5065249;28;20056;-77
2022/09/27 02:16:15;;;;;;;2.10;0.80;;;;;;;;;;5072507;28;20038;-77
2022/09/27 02:18:51;;;;;;;6.70;0.65;;;;;;;;;;5061780;28;20128;-77
2022/09/27 02:21:20;;;;;;;0.90;0.35;;;;;;;;;;5049473;28;20110;-77
2022/09/27 02:23:50;;;;;;;8.82;0.80;;;;;;;;;;5059197;28;20050;-78
2022/09/27 02:26:24;;;;;;;6.97;0.45;;;;;;;;;;5049874;28;20049;-78
2022/09/27 02:29:02;;;;;;;8.35;0.90;;;;;;;;;;5055560;28;20084;-77
2022/09/27 02:31:29;;;;;;;2.03;0.57;;;;;;;;;;5050314;28;20057;-77
2022/09/27 02:34:02;;;;;;;2.22;0.63;;;;;;;;;;5058034;28;20056;-77
2022/09/27 02:36:29;;;;;;;0.20;0.20;;;;;;;;;;5050073;28;20052;-78
2022/09/27 02:38:57;;;;;;;1.85;1.17;;;;;;;;;;5055360;28;20079;-78
2022/09/27 02:41:25;;;;;;;2.45;0.43;;;;;;;;;;5061291;28;20831;-78
2022/09/27 02:43:54;;;;;;;0.45;0.35;;;;;;;;;;5058723;28;20061;-77
2022/09/27 02:46:24;;;;;;;2.72;0.52;;;;;;;;;;5062598;28;20158;-78
2022/09/27 02:48:55;;;;;;;5.38;0.47;;;;;;;;;;5066948;28;20041;-78
2022/09/27 02:51:34;;;;;;;4.00;0.47;;;;;;;;;;5065860;28;20041;-79
2022/09/27 02:54:20;;;;;;;5.88;0.77;;;;;;;;;;5056298;28;20050;-77
2022/09/27 02:56:47;;;;;;;4.38;1.27;;;;;;;;;;5055457;28;20046;-77
2022/09/27 02:59:37;;;;;;;14.77;1.17;;;;;;;;;;5055933;28;20049;-77
2022/09/27 03:02:07;;;;;;;8.63;0.60;;;;;;;;;;5048493;28;20105;-78
2022/09/27 03:04:44;;;;;;;3.20;1.05;;;;;;;;;;5057299;28;20147;-77
2022/09/27 03:07:13;;;;;;;0.40;0.40;;;;;;;;;;5056608;28;20056;-77
2022/09/27 03:09:45;;;;;;;2.35;0.30;;;;;;;;;;5058229;28;20046;-78
2022/09/27 03:12:12;;;;;;;7.47;1.00;;;;;;;;;;5072698;28;20053;-78
2022/09/27 03:14:39;;;;;;;4.05;0.85;;;;;;;;;;5070696;28;20105;-78
2022/09/27 03:17:07;;;;;;;4.53;0.45;;;;;;;;;;5069262;28;20046;-79
2022/09/27 03:19:35;;;;;;;8.88;1.08;;;;;;;;;;5073473;28;20076;-78
2022/09/27 03:22:02;;;;;;;3.30;0.55;;;;;;;;;;5073256;28;20049;-78
2022/09/27 03:24:30;;;;;;;7.15;0.60;;;;;;;;;;5077278;28;20044;-78
2022/09/27 03:26:57;;;;;;;3.88;1.25;;;;;;;;;;5068484;28;20064;-78
2022/09/27 03:29:24;;;;;;;7.63;0.68;;;;;;;;;;5065914;28;20675;-77
2022/09/27 03:31:52;;;;;;;1.65;0.57;;;;;;;;;;5063389;28;20069;-77
2022/09/27 03:34:19;;;;;;;4.70;1.30;;;;;;;;;;5053830;28;20049;-77
2022/09/27 03:36:46;;;;;;;4.88;0.73;;;;;;;;;;5045498;28;20049;-78
2022/09/27 03:39:14;;;;;;;3.67;1.13;;;;;;;;;;5052192;28;20050;-77
2022/09/27 03:41:41;;;;;;;1.08;0.35;;;;;;;;;;5089714;28;20053;-77
2022/09/27 03:44:08;;;;;;;12.23;0.90;;;;;;;;;;5058493;28;20077;-78
2022/09/27 03:46:36;;;;;;;6.72;0.88;;;;;;;;;;5062244;28;20025;-78
2022/09/27 03:49:03;;;;;;;3.50;0.93;;;;;;;;;;5066896;28;20131;-78
2022/09/27 03:51:30;;;;;;;0.88;0.55;;;;;;;;;;5060285;28;20099;-77
2022/09/27 03:53:57;;;;;;;12.30;1.10;;;;;;;;;;5060836;28;20063;-77
2022/09/27 03:56:24;;;;;;;10.98;1.80;;;;;;;;;;5060791;28;20046;-78
2022/09/27 03:58:51;;;;;;;6.18;0.82;;;;;;;;;;5060240;28;22262;-78
2022/09/27 04:01:19;;;;;;;25.85;2.03;;;;;;;;;;5056172;28;20107;-77
2022/09/27 04:03:46;;;;;;;19.08;1.30;;;;;;;;;;5058606;28;20147;-78
2022/09/27 04:06:13;;;;;;;9.63;0.98;;;;;;;;;;5065099;28;20096;-77
2022/09/27 04:08:40;;;;;;;1.92;0.77;;;;;;;;;;5063173;28;20103;-77
2022/09/27 04:11:07;;;;;;;3.85;0.70;;;;;;;;;;5059999;28;20044;-76
2022/09/27 04:13:35;;;;;;;5.00;0.75;;;;;;;;;;5064134;28;20049;-78
2022/09/27 04:16:02;;;;;;;5.68;0.90;;;;;;;;;;5057461;28;20157;-78
2022/09/27 04:18:29;;;;;;;7.75;1.10;;;;;;;;;;5068940;28;20045;-77
2022/09/27 04:20:57;;;;;;;1.20;0.68;;;;;;;;;;5054843;28;20045;-78
2022/09/27 04:23:26;;;;;;;5.20;1.15;;;;;;;;;;5062004;28;20045;-77
2022/09/27 04:25:56;;;;;;;9.82;0.88;;;;;;;;;;5060001;28;20056;-77
2022/09/27 04:28:23;;;;;;;15.13;1.55;;;;;;;;;;5060746;28;20051;-77
2022/09/27 04:30:50;;;;;;;4.88;0.90;;;;;;;;;;5068315;28;20346;-79
2022/09/27 04:33:17;;;;;;;1.35;0.95;;;;;;;;;;5067031;28;20053;-78
2022/09/27 04:38:30;;;;;;;3.63;1.08;;;;;;;;;;5063223;28;20054;-78
2022/09/27 04:41:00;;;;;;;5.90;0.88;;;;;;;;;;5060706;28;20050;-78
2022/09/27 04:43:28;;;;;;;20.25;0.98;;;;;;;;;;5052383;28;20042;-77
2022/09/27 04:45:55;;;;;;;7.85;0.90;;;;;;;;;;5062866;28;20041;-78
2022/09/27 04:48:23;;;;;;;3.25;0.73;;;;;;;;;;5062224;28;20042;-77
2022/09/27 04:51:01;;;;;;;7.13;1.20;;;;;;;;;;5057099;28;20061;-77
2022/09/27 04:53:28;;;;;;;16.13;1.10;;;;;;;;;;5062411;28;20109;-78
2022/09/27 04:55:56;;;;;;;6.25;1.08;;;;;;;;;;5065453;28;20030;-77
2022/09/27 04:58:24;;;;;;;8.63;0.90;;;;;;;;;;5063806;28;20072;-77
2022/09/27 05:00:52;;;;;;;3.65;0.45;;;;;;;;;;5074529;28;20041;-79
2022/09/27 05:03:19;;;;;;;2.88;0.68;;;;;;;;;;5053763;28;20054;-78
2022/09/27 05:05:47;;;;;;;6.35;0.98;;;;;;;;;;5052538;28;20041;-77
2022/09/27 05:08:14;;;;;;;6.18;1.30;;;;;;;;;;5053097;28;20074;-77
2022/09/27 05:10:42;;;;;;;5.55;0.57;;;;;;;;;;5055887;28;20134;-77
2022/09/27 05:13:09;;;;;;;4.20;0.82;;;;;;;;;;5061766;28;20831;-77
2022/09/27 05:15:36;;;;;;;2.22;0.50;;;;;;;;;;5057245;28;20064;-78
2022/09/27 05:18:03;;;;;;;7.57;0.88;;;;;;;;;;5065324;28;20053;-77
2022/09/27 05:20:31;;;;;;;1.58;0.70;;;;;;;;;;5065046;28;20056;-77
2022/09/27 05:22:58;;;;;;;9.05;1.27;;;;;;;;;;5059224;28;20064;-78
2022/09/27 05:25:25;;;;;;;5.88;1.00;;;;;;;;;;5058065;28;20033;-77
2022/09/27 05:27:53;;;;;;;4.43;0.80;;;;;;;;;;5054291;28;20054;-77
2022/09/27 05:30:20;;;;;;;3.67;0.75;;;;;;;;;;5050639;28;20109;-78
2022/09/27 05:32:49;;;;;;;4.88;1.10;;;;;;;;;;5050417;28;20076;-77
2022/09/27 05:35:18;;;;;;;6.80;1.35;;;;;;;;;;5057706;28;20076;-77
2022/09/27 05:38:03;;;;;;;3.08;0.77;;;;;;;;;;5060664;28;20058;-77
2022/09/27 05:40:31;;;;;;;7.53;1.08;;;;;;;;;;5048066;28;20057;-78
2022/09/27 05:43:14;;;;;;;7.35;1.30;;;;;;;;;;5060692;28;20042;-77
2022/09/27 05:45:43;;;;;;;5.75;1.27;;;;;;;;;;5059090;28;20059;-77
2022/09/27 05:48:12;;;;;;;6.95;1.60;;;;;;;;;;5055473;28;20046;-77
2022/09/27 05:50:40;;;;;;;7.80;1.67;;;;;;;;;;5060027;28;20053;-77
2022/09/27 05:53:09;;;;;;;14.57;1.73;;;;;;;;;;5057070;28;20137;-77
2022/09/27 05:55:36;;;;;;;10.15;1.25;;;;;;;;;;5055836;28;20095;-78
2022/09/27 05:58:05;;;;;;;9.40;1.13;;;;;;;;;;5054525;28;20049;-77
2022/09/27 06:00:33;;;;;;;4.45;1.48;;;;;;;;;;5055650;28;20055;-78
2022/09/27 06:03:02;;;;;;;8.43;1.00;;;;;;;;;;5066929;28;20084;-77
2022/09/27 06:05:30;;;;;;;3.95;1.20;;;;;;;;;;5041321;28;20045;-77
2022/09/27 06:07:58;;;;;;;4.07;1.13;;;;;;;;;;5046039;28;20057;-78
2022/09/27 06:10:26;;;;;;;6.43;1.27;;;;;;;;;;5048226;28;20077;-77
2022/09/27 06:12:55;;;;;;;3.70;1.15;;;;;;;;;;5050438;28;20427;-79
2022/09/27 06:15:22;;;;;;;9.27;1.88;;;;;;;;;;5051503;28;20046;-78
2022/09/27 06:17:49;;;;;;;4.85;0.85;;;;;;;;;;5058336;28;20053;-77
2022/09/27 06:20:17;;;;;;;3.97;0.80;;;;;;;;;;5047717;28;20144;-77
2022/09/27 06:22:45;;;;;;;7.70;1.58;;;;;;;;;;5059058;28;20037;-77
2022/09/27 06:25:12;;;;;;;1.75;0.60;;;;;;;;;;5054684;28;20033;-77
2022/09/27 06:27:40;;;;;;;4.32;1.20;;;;;;;;;;5050741;28;20132;-77
2022/09/27 06:30:07;;;;;;;4.43;0.85;;;;;;;;;;5053987;28;20056;-78
2022/09/27 06:32:35;;;;;;;4.38;1.10;;;;;;;;;;5061340;28;20136;-77
2022/09/27 06:35:04;;;;;;;4.60;0.57;;;;;;;;;;5056698;28;20049;-77
2022/09/27 06:37:31;;;;;;;4.03;1.20;;;;;;;;;;5066686;28;20072;-78
2022/09/27 06:39:58;;;;;;;3.47;1.25;;;;;;;;;;5052456;28;20103;-77
2022/09/27 06:42:26;;;;;;;3.30;0.60;;;;;;;;;;5051627;28;20049;-77
2022/09/27 06:44:54;;;;;;;12.88;0.85;;;;;;;;;;5056553;28;20053;-77
2022/09/27 06:47:22;;;;;;;3.22;0.60;;;;;;;;;;5059274;28;20049;-76
2022/09/27 06:49:49;;;;;;;4.60;0.93;;;;;;;;;;5052760;28;20045;-78
2022/09/27 06:52:17;;;;;;;8.95;1.13;;;;;;;;;;5057205;28;20046;-79
2022/09/27 06:54:45;;;;;;;0.47;0.47;;;;;;;;;;5056703;28;20049;-77
2022/09/27 07:00:22;;;;;;;2.22;0.68;;;;;;;;;;5048893;28;20399;-78
2022/09/27 07:02:45;;;;;;;1.50;0.57;;;;;;;;;;5054471;28;20139;-78
2022/09/27 07:05:13;;;;;;;2.97;0.75;;;;;;;;;;5052954;28;20053;-78
2022/09/27 07:07:40;;;;;;;1.52;0.60;;;;;;;;;;5050804;28;20965;-78
2022/09/27 07:10:08;;;;;;;2.70;1.10;;;;;;;;;;5049019;28;21331;-78
2022/09/27 07:12:36;;;;;;;7.75;1.13;;;;;;;;;;5051701;28;20056;-78
2022/09/27 07:15:05;;;;;;;1.95;0.80;;;;;;;;;;5050447;28;20065;-77
2022/09/27 07:17:34;;;;;;;2.75;0.90;;;;;;;;;;5053991;28;20041;-77
2022/09/27 07:20:02;;;;;;;5.97;1.00;;;;;;;;;;5064154;28;20102;-77
2022/09/27 07:22:29;;;;;;;2.95;1.15;;;;;;;;;;5056394;28;20041;-78
2022/09/27 07:24:57;;;;;;;4.53;0.98;;;;;;;;;;5054546;28;20050;-78
2022/09/27 07:27:25;;;;;;;4.80;0.85;;;;;;;;;;5057667;28;20103;-78
2022/09/27 07:29:53;;;;;;;1.38;0.63;;;;;;;;;;5052155;28;20050;-78
2022/09/27 07:32:20;;;;;;;11.60;1.40;;;;;;;;;;5050230;28;20129;-77
2022/09/27 07:34:48;;;;;;;6.88;0.98;;;;;;;;;;5049491;28;20099;-78
2022/09/27 07:37:16;;;;;;;3.22;0.88;;;;;;;;;;5054144;28;20795;-78
2022/09/27 07:39:43;;;;;;;5.63;1.13;;;;;;;;;;5053081;28;20099;-77
2022/09/27 07:42:11;;;;;;;3.17;0.77;;;;;;;;;;5042501;28;20072;-79
2022/09/27 07:44:38;;;;;;;7.18;1.20;;;;;;;;;;5050511;28;20045;-78
2022/09/27 07:47:09;;;;;;;6.22;1.00;;;;;;;;;;5049977;28;20045;-78
2022/09/27 07:49:37;;;;;;;4.38;0.93;;;;;;;;;;5051287;28;20132;-77
2022/09/27 07:52:04;;;;;;;3.35;1.00;;;;;;;;;;5054377;28;20049;-78
2022/09/27 07:54:31;;;;;;;4.22;1.50;;;;;;;;;;5051877;28;20046;-78
2022/09/27 07:56:58;;;;;;;4.05;0.85;;;;;;;;;;5051061;28;20045;-77
2022/09/27 07:59:26;;;;;;;1.98;0.85;;;;;;;;;;5066032;28;20090;-78
2022/09/27 08:01:54;;;;;;;12.00;1.92;;;;;;;;;;5051541;28;20053;-78
2022/09/27 08:04:21;;;;;;;4.35;1.13;;;;;;;;;;5051843;28;20053;-78
2022/09/27 08:06:49;;;;;;;6.07;1.02;;;;;;;;;;5049790;28;20107;-79
2022/09/27 08:09:16;;;;;;;8.98;1.40;;;;;;;;;;5051206;28;20053;-78
2022/09/27 08:11:44;;;;;;;2.97;1.00;;;;;;;;;;5050827;28;20199;-77
2022/09/27 08:14:13;;;;;;;7.00;0.85;;;;;;;;;;5047324;28;20033;-80
2022/09/27 08:16:41;;;;;;;9.27;0.98;;;;;;;;;;5051103;28;20046;-79
2022/09/27 08:19:08;;;;;;;4.43;0.90;;;;;;;;;;5053904;28;20052;-78
2022/09/27 08:21:35;;;;;;;1.15;0.77;;;;;;;;;;5057100;28;20944;-79
2022/09/27 08:24:02;;;;;;;2.80;1.02;;;;;;;;;;5049161;28;20041;-77
2022/09/27 08:26:30;;;;;;;6.70;1.00;;;;;;;;;;5054797;28;20050;-79
2022/09/27 08:28:57;;;;;;;5.13;1.20;;;;;;;;;;5051667;28;20056;-79
2022/09/27 08:31:24;;;;;;;4.90;1.27;;;;;;;;;;5050571;28;20048;-78
2022/09/27 08:33:52;;;;;;;4.80;1.05;;;;;;;;;;5057317;28;20053;-78
2022/09/27 08:36:19;;;;;;;2.17;0.70;;;;;;;;;;5050603;28;20054;-78
2022/09/27 08:38:50;;;;;;;5.05;1.10;;;;;;;;;;5052141;28;20046;-78
2022/09/27 08:41:23;;;;;;;7.07;0.90;;;;;;;;;;5056604;28;20103;-78
2022/09/27 08:44:09;;;;;;;1.83;1.00;;;;;;;;;;5052212;28;20101;-78
2022/09/27 08:46:44;;;;;;;17.55;1.60;;;;;;;;;;5043096;28;20050;-78
2022/09/27 08:49:18;;;;;;;6.38;1.33;;;;;;;;;;5048108;28;20516;-77
2022/09/27 08:51:48;;;;;;;1.02;0.57;;;;;;;;;;5049170;28;20056;-77
2022/09/27 08:54:19;;;;;;;2.05;0.88;;;;;;;;;;5060790;28;20056;-77
2022/09/27 08:56:48;;;;;;;12.80;1.00;;;;;;;;;;5056854;28;20049;-78
2022/09/27 08:59:20;;;;;;;4.07;0.80;;;;;;;;;;5049523;28;20136;-78
2022/09/27 09:01:49;;;;;;;4.40;0.77;;;;;;;;;;5048318;28;20061;-78
2022/09/27 09:04:25;;;;;;;2.13;0.85;;;;;;;;;;5050301;28;20041;-78
2022/09/27 09:06:59;;;;;;;4.40;1.15;;;;;;;;;;5046198;28;20045;-77
2022/09/27 09:09:35;;;;;;;3.22;0.82;;;;;;;;;;5049890;28;20064;-78
2022/09/27 09:12:47;;;;;;;4.13;0.95;;;;;;;;;;5051892;28;20694;-78
2022/09/27 09:15:24;;;;;;;1.30;0.47;;;;;;;;;;5037736;28;20445;-78
2022/09/27 09:17:51;;;;;;;1.90;0.45;;;;;;;;;;5055255;28;20060;-78
2022/09/27 09:20:25;;;;;;;8.90;0.70;;;;;;;;;;5049617;28;20895;-78
2022/09/27 09:23:09;;;;;;;3.67;0.68;;;;;;;;;;5053169;28;20064;-78
2022/09/27 09:25:36;;;;;;;;;;;;;;;;;;5049420;28;20053;-78
2022/09/27 09:28:11;;;;;;;2.63;0.95;;;;;;;;;;5054600;28;43841;-78
2022/09/27 09:30:51;;;;;;;3.67;0.50;;;;;;;;;;5042262;28;20058;-77
2022/09/27 09:33:28;;;;;;;4.18;0.70;;;;;;;;;;5060177;28;20049;-78
2022/09/27 09:35:59;;;;;;;1.67;0.38;;;;;;;;;;5052804;28;20041;-79
2022/09/27 09:38:29;;;;;;;5.53;1.00;;;;;;;;;;5047396;28;20053;-78
2022/09/27 09:41:16;;;;;;;3.05;0.52;;;;;;;;;;5049892;28;20096;-78
2022/09/27 09:43:50;;;;;;;4.20;0.50;;;;;;;;;;5049191;28;20137;-77
2022/09/27 09:46:17;;;;;;;;;;;;;;;;;;5049854;28;20050;-78
2022/09/27 09:48:47;;;;;;;1.40;0.45;;;;;;;;;;5057157;28;45776;-78
2022/09/27 09:51:21;;;;;;;3.20;0.55;;;;;;;;;;5049532;28;21194;-77
2022/09/27 09:53:54;;;;;;;2.10;0.50;;;;;;;;;;5045313;28;20053;-77
2022/09/27 09:56:44;;;;;;;6.00;0.77;;;;;;;;;;5053854;28;20073;-78
2022/09/27 09:59:15;;;;;;;1.08;0.57;;;;;;;;;;5048749;28;20057;-78
2022/09/27 10:01:47;;;;;;;2.15;0.30;;;;;;;;;;5045633;28;20058;-78
2022/09/27 10:04:17;;;;;;;2.65;0.98;;;;;;;;;;5054088;28;20080;-78
2022/09/27 10:06:44;;;;;;;1.77;0.47;;;;;;;;;;5045524;28;20046;-79
2022/09/27 10:09:13;;;;;;;3.28;0.45;;;;;;;;;;5049083;28;20046;-77
2022/09/27 10:11:42;;;;;;;0.65;0.40;;;;;;;;;;5051041;28;20204;-78
2022/09/27 10:14:11;;;;;;;4.85;0.63;;;;;;;;;;5050807;28;20145;-78
2022/09/27 10:16:41;;;;;;;4.07;0.88;;;;;;;;;;5045073;28;20096;-78
2022/09/27 10:19:09;;;;;;;1.25;0.60;;;;;;;;;;5051319;28;20049;-78
2022/09/27 10:21:39;;;;;;;0.98;0.25;;;;;;;;;;5051858;28;20058;-77
2022/09/27 10:24:09;;;;;;;1.55;0.45;;;;;;;;;;5058839;28;20120;-78
2022/09/27 10:26:44;;;;;;;1.33;0.55;;;;;;;;;;5052247;28;20078;-78
2022/09/27 10:29:16;;;;;;;3.67;0.50;;;;;;;;;;5043573;28;20049;-78
2022/09/27 10:31:46;;;;;;;0.80;0.40;;;;;;;;;;5050841;28;20941;-78
2022/09/27 10:34:18;;;;;;;2.72;0.40;;;;;;;;;;5051089;28;20142;-77
2022/09/27 10:36:45;;;;;;;0.95;0.45;;;;;;;;;;5053168;28;20865;-78
2022/09/27 10:39:21;;;;;;;1.27;0.60;;;;;;;;;;5054504;28;20057;-77
2022/09/27 10:41:48;;;;;;;1.90;0.50;;;;;;;;;;5083322;28;20103;-78
2022/09/27 10:44:15;;;;;;;6.43;0.63;;;;;;;;;;5058200;28;20057;-78
2022/09/27 10:46:43;;;;;;;2.92;0.57;;;;;;;;;;5047421;28;20124;-78
2022/09/27 10:49:22;;;;;;;3.75;0.77;;;;;;;;;;5035728;28;20046;-78
2022/09/27 10:51:51;;;;;;;0.90;0.38;;;;;;;;;;5053273;28;20115;-78
2022/09/27 10:54:23;;;;;;;1.85;0.57;;;;;;;;;;5049381;28;20049;-78
2022/09/27 10:56:58;;;;;;;0.50;0.40;;;;;;;;;;5046694;28;20100;-77
2022/09/27 10:59:29;;;;;;;2.78;0.63;;;;;;;;;;5043683;28;22719;-77
2022/09/27 11:01:57;;;;;;;2.08;0.57;;;;;;;;;;5044199;28;20144;-79
2022/09/27 11:04:31;;;;;;;5.78;0.88;;;;;;;;;;5042021;28;20053;-79
2022/09/27 11:07:10;;;;;;;4.72;1.30;;;;;;;;;;5045134;28;20062;-78
2022/09/27 11:09:45;;;;;;;2.70;0.52;;;;;;;;;;5045174;28;20042;-77
2022/09/27 11:12:12;;;;;;;1.75;0.63;;;;;;;;;;5039464;28;20088;-78
2022/09/27 11:14:40;;;;;;;6.25;0.80;;;;;;;;;;5047330;28;20042;-78
2022/09/27 11:17:09;;;;;;;4.55;1.05;;;;;;;;;;5043409;28;20058;-78
2022/09/27 11:19:48;;;;;;;3.97;0.50;;;;;;;;;;5040334;28;20054;-78
2022/09/27 11:22:28;;;;;;;3.90;0.65;;;;;;;;;;5039346;28;20042;-77
2022/09/27 11:24:59;;;;;;;2.40;0.60;;;;;;;;;;5045354;28;20110;-78
2022/09/27 11:27:30;;;;;;;2.00;0.50;;;;;;;;;;5056698;28;20054;-78
2022/09/27 11:30:13;;;;;;;0.50;0.30;;;;;;;;;;5046789;28;20056;-77
2022/09/27 11:32:46;;;;;;;1.00;0.47;;;;;;;;;;5047061;28;20672;-77
2022/09/27 11:35:32;;;;;;;2.13;0.63;;;;;;;;;;5044634;28;20992;-77
2022/09/27 11:38:09;;;;;;;1.83;0.77;;;;;;;;;;5055512;28;20053;-77
2022/09/27 11:40:39;;;;;;;3.38;0.90;;;;;;;;;;5057721;28;20053;-77
2022/09/27 11:43:16;;;;;;;2.72;0.63;;;;;;;;;;5049337;28;20053;-78
2022/09/27 11:46:02;;;;;;;1.92;0.63;;;;;;;;;;5057861;28;20050;-77
2022/09/27 11:48:48;;;;;;;1.48;0.50;;;;;;;;;;5052028;28;20053;-78
2022/09/27 11:51:19;;;;;;;4.43;1.10;;;;;;;;;;5043085;28;20053;-77
2022/09/27 11:53:58;;;;;;;2.25;0.55;;;;;;;;;;5089732;28;20041;-78
2022/09/27 11:56:36;;;;;;;5.40;0.65;;;;;;;;;;5072669;28;20064;-78
2022/09/27 11:59:31;;;;;;;0.28;0.28;;;;;;;;;;5054641;28;20058;-77
2022/09/27 12:02:12;;;;;;;0.50;0.30;;;;;;;;;;5043837;28;20156;-76
2022/09/27 12:04:45;;;;;;;0.80;0.50;;;;;;;;;;5045634;28;20818;-78
2022/09/27 12:07:42;;;;;;;0.93;0.35;;;;;;;;;;5050300;28;20050;-78
2022/09/27 12:10:12;;;;;;;1.85;0.52;;;;;;;;;;5005824;28;20093;-77
2022/09/27 12:12:43;;;;;;;1.15;0.65;;;;;;;;;;5007419;28;20094;-77
2022/09/27 12:15:18;;;;;;;6.07;0.75;;;;;;;;;;5008089;28;20105;-77
2022/09/27 12:17:48;;;;;;;0.57;0.50;;;;;;;;;;5003665;28;20049;-77
2022/09/27 12:20:15;;;;;;;3.25;0.95;;;;;;;;;;5013519;28;20918;-79
2022/09/27 12:22:52;;;;;;;0.30;0.30;;;;;;;;;;5008280;28;20823;-79
2022/09/27 12:25:28;;;;;;;0.47;0.40;;;;;;;;;;5011908;28;20109;-78
2022/09/27 12:27:56;;;;;;;0.40;0.40;;;;;;;;;;5013281;28;20046;-79
2022/09/27 12:30:23;;;;;;;2.38;0.75;;;;;;;;;;5001757;28;20105;-78
2022/09/27 12:33:01;;;;;;;2.67;1.02;;;;;;;;;;5016649;28;20059;-78
2022/09/27 12:35:29;;;;;;;1.27;0.70;;;;;;;;;;5011134;28;20208;-78
2022/09/27 12:38:11;;;;;;;0.93;0.50;;;;;;;;;;5010383;28;20054;-78
2022/09/27 12:40:40;;;;;;;4.00;0.70;;;;;;;;;;5017997;28;20051;-78
2022/09/27 12:43:11;;;;;;;2.80;0.90;;;;;;;;;;5003570;28;20054;-78
2022/09/27 12:45:47;;;;;;;1.45;0.52;;;;;;;;;;5007646;28;20058;-79
2022/09/27 12:48:23;;;;;;;0.93;0.40;;;;;;;;;;5046701;28;20103;-79
2022/09/27 12:50:53;;;;;;;5.13;0.90;;;;;;;;;;5049212;28;20036;-79
2022/09/27 12:53:22;;;;;;;2.92;0.50;;;;;;;;;;5045498;28;20058;-79
2022/09/27 12:56:05;;;;;;;2.33;0.60;;;;;;;;;;5050457;28;20061;-78
2022/09/27 12:58:43;;;;;;;2.60;0.57;;;;;;;;;;5045447;28;21002;-78
2022/09/27 13:01:25;;;;;;;2.53;0.63;;;;;;;;;;5050357;28;20068;-78
2022/09/27 13:03:52;;;;;;;3.13;0.43;;;;;;;;;;5050138;28;20048;-78
2022/09/27 13:06:20;;;;;;;2.40;0.45;;;;;;;;;;5052566;28;20061;-78
2022/09/27 13:09:05;;;;;;;1.70;0.80;;;;;;;;;;5055688;28;20132;-78
2022/09/27 13:11:36;;;;;;;1.17;0.70;;;;;;;;;;5043675;28;20058;-79
2022/09/27 13:14:04;;;;;;;2.35;0.68;;;;;;;;;;5054198;28;20052;-79
2022/09/27 13:16:41;;;;;;;3.75;0.63;;;;;;;;;;5056111;28;20061;-78
2022/09/27 13:19:31;;;;;;;1.23;0.60;;;;;;;;;;5057334;28;20088;-79
2022/09/27 13:21:58;;;;;;;5.15;0.63;;;;;;;;;;5053416;28;20053;-79
2022/09/27 13:24:40;;;;;;;1.73;0.80;;;;;;;;;;5059654;28;20050;-78
2022/09/27 13:27:20;;;;;;;8.48;0.70;;;;;;;;;;5052035;28;20099;-79
2022/09/27 13:29:47;;;;;;;1.63;0.60;;;;;;;;;;5052309;28;20045;-78
2022/09/27 13:32:16;;;;;;;5.30;1.00;;;;;;;;;;5051674;28;22514;-78
2022/09/27 13:34:48;;;;;;;1.20;0.60;;;;;;;;;;5057373;28;20104;-77
2022/09/27 13:37:43;;;;;;;2.97;0.90;;;;;;;;;;5048704;28;20148;-77
2022/09/27 13:40:14;;;;;;;0.50;0.50;;;;;;;;;;5052456;28;20061;-78
2022/09/27 13:42:54;;;;;;;2.05;0.50;;;;;;;;;;5042365;28;20060;-77
2022/09/27 13:45:28;;;;;;;2.03;0.65;;;;;;;;;;5053569;28;20065;-77
2022/09/27 13:47:57;;;;;;;0.47;0.43;;;;;;;;;;5055527;28;20065;-77
2022/09/27 13:50:32;;;;;;;2.78;0.75;;;;;;;;;;5049037;28;20612;-77
2022/09/27 13:53:06;;;;;;;1.05;0.50;;;;;;;;;;5048173;28;20069;-77
2022/09/27 13:55:41;;;;;;;0.80;0.80;;;;;;;;;;5062500;28;20064;-77
2022/09/27 13:58:20;;;;;;;1.55;0.60;;;;;;;;;;5049377;28;20053;-76
2022/09/27 14:00:50;;;;;;;2.90;0.60;;;;;;;;;;5053452;28;20053;-77
2022/09/27 14:03:21;;;;;;;3.50;0.68;;;;;;;;;;5054416;28;20099;-77
2022/09/27 14:05:51;;;;;;;4.55;0.73;;;;;;;;;;5045432;28;20817;-77
2022/09/27 14:08:23;;;;;;;1.13;0.50;;;;;;;;;;5041783;28;20050;-77
2022/09/27 14:10:51;;;;;;;2.05;0.85;;;;;;;;;;5053877;28;20057;-77
2022/09/27 14:13:20;;;;;;;1.75;0.70;;;;;;;;;;5054105;28;20033;-78
2022/09/27 14:15:48;;;;;;;2.03;0.50;;;;;;;;;;5051857;28;20049;-76
2022/09/27 14:18:16;;;;;;;1.73;0.50;;;;;;;;;;5055521;28;20053;-76
2022/09/27 14:20:45;;;;;;;2.83;0.80;;;;;;;;;;5062073;28;20049;-77
2022/09/27 14:23:16;;;;;;;1.48;0.70;;;;;;;;;;5055017;28;20050;-77
2022/09/27 14:25:47;;;;;;;1.38;0.73;;;;;;;;;;5050504;28;20065;-77
2022/09/27 14:28:36;;;;;;;1.65;0.63;;;;;;;;;;5056240;28;20057;-77
2022/09/27 14:31:07;;;;;;;6.68;0.82;;;;;;;;;;5066996;28;20892;-77
2022/09/27 14:33:34;;;;;;;5.03;0.75;;;;;;;;;;5053780;28;20054;-77
2022/09/27 14:38:50;;;;;;;4.45;0.70;;;;;;;;;;5053695;28;20791;-76
2022/09/27 14:41:18;;;;;;;0.50;0.50;;;;;;;;;;5098756;28;20063;-77
2022/09/27 14:43:49;;;;;;;0.95;0.75;;;;;;;;;;5043518;28;20057;-77
2022/09/27 14:46:25;;;;;;;8.40;0.90;;;;;;;;;;5069340;28;20081;-77
2022/09/27 14:48:52;;;;;;;4.72;1.25;;;;;;;;;;5081684;28;20056;-76
2022/09/27 14:51:21;;;;;;;2.58;0.65;;;;;;;;;;5056530;28;20053;-77
2022/09/27 14:53:52;;;;;;;0.55;0.55;;;;;;;;;;5059511;28;20276;-76
2022/09/27 14:56:21;;;;;;;1.10;0.40;;;;;;;;;;5064657;28;20048;-77
2022/09/27 14:58:55;;;;;;;1.50;0.70;;;;;;;;;;5053358;28;20041;-77
2022/09/27 15:01:23;;;;;;;2.88;1.00;;;;;;;;;;5058256;28;20057;-77
2022/09/27 15:03:52;;;;;;;2.80;0.77;;;;;;;;;;5057733;28;20797;-77
2022/09/27 15:06:20;;;;;;;1.33;0.95;;;;;;;;;;5062971;28;20052;-77
2022/09/27 15:08:49;;;;;;;2.00;0.98;;;;;;;;;;5045498;28;20053;-77
2022/09/27 15:11:18;;;;;;;3.10;1.20;;;;;;;;;;5050183;28;20037;-77
2022/09/27 15:13:46;;;;;;;8.13;0.85;;;;;;;;;;5046436;28;20030;-77
2022/09/27 15:16:18;;;;;;;1.00;0.70;;;;;;;;;;5057101;28;20054;-77